sensor_id;sensor_type;location;lat;lon;timestamp;temperature;humidity
68358;DHT22;55276;53.260;50.222;2022-11-03T00:01:57;0.60;79.70
68358;DHT22;55276;53.260;50.222;2022-11-03T00:04:23;0.60;80.20
68358;DHT22;55276;53.260;50.222;2022-11-03T00:06:51;0.70;80.00
68358;DHT22;55276;53.260;50.222;2022-11-03T00:09:19;0.70;80.00
68358;DHT22;55276;53.260;50.222;2022-11-03T00:11:47;0.70;80.00
68358;DHT22;55276;53.260;50.222;2022-11-03T00:14:13;0.70;80.00
68358;DHT22;55276;53.260;50.222;2022-11-03T00:16:40;0.70;80.10
68358;DHT22;55276;53.260;50.222;2022-11-03T00:19:07;0.70;80.20
68358;DHT22;55276;53.260;50.222;2022-11-03T00:21:35;0.70;80.30
68358;DHT22;55276;53.260;50.222;2022-11-03T00:24:02;0.80;80.00
68358;DHT22;55276;53.260;50.222;2022-11-03T00:26:29;0.80;80.00
68358;DHT22;55276;53.260;50.222;2022-11-03T00:29:01;0.80;79.90
68358;DHT22;55276;53.260;50.222;2022-11-03T00:31:37;0.80;80.00
68358;DHT22;55276;53.260;50.222;2022-11-03T00:34:04;0.70;80.30
68358;DHT22;55276;53.260;50.222;2022-11-03T00:36:33;0.80;80.00
68358;DHT22;55276;53.260;50.222;2022-11-03T00:39:00;0.70;80.50
68358;DHT22;55276;53.260;50.222;2022-11-03T00:41:26;0.80;80.40
68358;DHT22;55276;53.260;50.222;2022-11-03T00:43:53;0.80;80.40
68358;DHT22;55276;53.260;50.222;2022-11-03T00:46:22;0.80;80.30
68358;DHT22;55276;53.260;50.222;2022-11-03T00:48:49;0.80;80.30
68358;DHT22;55276;53.260;50.222;2022-11-03T00:51:17;0.80;80.60
68358;DHT22;55276;53.260;50.222;2022-11-03T00:53:51;0.80;80.60
68358;DHT22;55276;53.260;50.222;2022-11-03T00:56:28;0.80;80.20
68358;DHT22;55276;53.260;50.222;2022-11-03T00:59:03;0.80;80.10
68358;DHT22;55276;53.260;50.222;2022-11-03T01:01:31;0.90;80.10
68358;DHT22;55276;53.260;50.222;2022-11-03T01:03:58;1.00;80.00
68358;DHT22;55276;53.260;50.222;2022-11-03T01:06:46;0.90;80.10
68358;DHT22;55276;53.260;50.222;2022-11-03T01:09:29;0.90;80.40
68358;DHT22;55276;53.260;50.222;2022-11-03T01:14:41;1.00;80.50
68358;DHT22;55276;53.260;50.222;2022-11-03T01:17:13;1.00;80.80
68358;DHT22;55276;53.260;50.222;2022-11-03T01:19:39;1.00;80.80
68358;DHT22;55276;53.260;50.222;2022-11-03T01:22:06;1.10;80.80
68358;DHT22;55276;53.260;50.222;2022-11-03T01:24:36;1.10;80.70
68358;DHT22;55276;53.260;50.222;2022-11-03T01:27:02;1.20;80.40
68358;DHT22;55276;53.260;50.222;2022-11-03T01:29:28;1.20;80.10
68358;DHT22;55276;53.260;50.222;2022-11-03T01:31:54;1.20;80.40
68358;DHT22;55276;53.260;50.222;2022-11-03T01:34:21;1.20;80.40
68358;DHT22;55276;53.260;50.222;2022-11-03T01:36:47;1.20;80.50
68358;DHT22;55276;53.260;50.222;2022-11-03T01:39:16;1.20;80.20
68358;DHT22;55276;53.260;50.222;2022-11-03T01:41:45;1.30;80.40
68358;DHT22;55276;53.260;50.222;2022-11-03T01:54:44;1.30;79.30
68358;DHT22;55276;53.260;50.222;2022-11-03T01:57:16;1.20;79.60
68358;DHT22;55276;53.260;50.222;2022-11-03T01:59:44;1.20;79.80
68358;DHT22;55276;53.260;50.222;2022-11-03T02:02:11;1.30;79.90
68358;DHT22;55276;53.260;50.222;2022-11-03T02:04:38;1.20;79.30
68358;DHT22;55276;53.260;50.222;2022-11-03T02:07:14;1.20;79.60
68358;DHT22;55276;53.260;50.222;2022-11-03T02:09:42;1.20;79.80
68358;DHT22;55276;53.260;50.222;2022-11-03T02:12:09;1.20;79.60
68358;DHT22;55276;53.260;50.222;2022-11-03T02:14:48;1.20;79.00
68358;DHT22;55276;53.260;50.222;2022-11-03T02:17:17;1.00;79.40
68358;DHT22;55276;53.260;50.222;2022-11-03T02:23:16;1.10;79.60
68358;DHT22;55276;53.260;50.222;2022-11-03T02:25:49;1.10;79.60
68358;DHT22;55276;53.260;50.222;2022-11-03T02:28:18;1.00;79.50
68358;DHT22;55276;53.260;50.222;2022-11-03T02:39:22;1.10;80.50
68358;DHT22;55276;53.260;50.222;2022-11-03T02:41:52;1.00;80.30
68358;DHT22;55276;53.260;50.222;2022-11-03T02:44:22;1.00;80.50
68358;DHT22;55276;53.260;50.222;2022-11-03T02:47:13;1.00;80.60
68358;DHT22;55276;53.260;50.222;2022-11-03T02:49:48;1.00;81.10
68358;DHT22;55276;53.260;50.222;2022-11-03T02:57:55;0.90;81.20
68358;DHT22;55276;53.260;50.222;2022-11-03T03:00:24;0.80;81.60
68358;DHT22;55276;53.260;50.222;2022-11-03T03:02:54;0.80;81.80
68358;DHT22;55276;53.260;50.222;2022-11-03T03:05:29;0.80;82.20
68358;DHT22;55276;53.260;50.222;2022-11-03T03:08:00;0.80;81.90
68358;DHT22;55276;53.260;50.222;2022-11-03T03:10:34;0.80;82.30
68358;DHT22;55276;53.260;50.222;2022-11-03T03:13:06;0.80;81.90
68358;DHT22;55276;53.260;50.222;2022-11-03T03:21:32;0.80;82.20
68358;DHT22;55276;53.260;50.222;2022-11-03T03:24:10;0.90;81.90
68358;DHT22;55276;53.260;50.222;2022-11-03T03:26:44;0.90;82.10
68358;DHT22;55276;53.260;50.222;2022-11-03T03:29:15;0.90;82.00
68358;DHT22;55276;53.260;50.222;2022-11-03T03:31:47;1.00;82.20
68358;DHT22;55276;53.260;50.222;2022-11-03T03:34:25;1.00;82.00
68358;DHT22;55276;53.260;50.222;2022-11-03T03:36:55;1.10;81.60
68358;DHT22;55276;53.260;50.222;2022-11-03T03:39:26;1.10;81.70
68358;DHT22;55276;53.260;50.222;2022-11-03T03:41:55;1.20;81.30
68358;DHT22;55276;53.260;50.222;2022-11-03T03:44:23;1.20;80.40
68358;DHT22;55276;53.260;50.222;2022-11-03T03:47:06;1.30;80.00
68358;DHT22;55276;53.260;50.222;2022-11-03T03:49:33;1.30;79.10
68358;DHT22;55276;53.260;50.222;2022-11-03T03:51:59;1.30;79.40
68358;DHT22;55276;53.260;50.222;2022-11-03T03:54:26;1.30;79.20
68358;DHT22;55276;53.260;50.222;2022-11-03T03:57:03;1.20;79.40
68358;DHT22;55276;53.260;50.222;2022-11-03T03:59:29;1.30;79.00
68358;DHT22;55276;53.260;50.222;2022-11-03T04:01:56;1.30;79.40
68358;DHT22;55276;53.260;50.222;2022-11-03T04:04:23;1.40;79.20
68358;DHT22;55276;53.260;50.222;2022-11-03T04:06:53;1.30;79.40
68358;DHT22;55276;53.260;50.222;2022-11-03T04:09:39;1.30;79.20
68358;DHT22;55276;53.260;50.222;2022-11-03T04:12:07;1.50;79.20
68358;DHT22;55276;53.260;50.222;2022-11-03T04:14:52;1.40;79.00
68358;DHT22;55276;53.260;50.222;2022-11-03T04:17:41;1.30;79.60
68358;DHT22;55276;53.260;50.222;2022-11-03T04:20:27;1.50;79.10
68358;DHT22;55276;53.260;50.222;2022-11-03T04:23:13;1.50;79.10
68358;DHT22;55276;53.260;50.222;2022-11-03T04:25:39;1.50;79.20
68358;DHT22;55276;53.260;50.222;2022-11-03T04:28:13;1.40;79.20
68358;DHT22;55276;53.260;50.222;2022-11-03T04:30:39;1.40;79.50
68358;DHT22;55276;53.260;50.222;2022-11-03T04:33:26;1.50;79.20
68358;DHT22;55276;53.260;50.222;2022-11-03T04:35:57;1.50;79.30
68358;DHT22;55276;53.260;50.222;2022-11-03T04:38:25;1.50;79.40
68358;DHT22;55276;53.260;50.222;2022-11-03T04:40:56;1.70;79.10
68358;DHT22;55276;53.260;50.222;2022-11-03T04:43:33;1.60;79.40
68358;DHT22;55276;53.260;50.222;2022-11-03T04:46:01;1.70;79.80
68358;DHT22;55276;53.260;50.222;2022-11-03T04:48:30;1.60;79.50
68358;DHT22;55276;53.260;50.222;2022-11-03T04:51:17;1.60;79.90
68358;DHT22;55276;53.260;50.222;2022-11-03T04:53:53;1.70;80.00
68358;DHT22;55276;53.260;50.222;2022-11-03T04:56:22;1.80;79.80
68358;DHT22;55276;53.260;50.222;2022-11-03T04:58:48;1.80;80.00
68358;DHT22;55276;53.260;50.222;2022-11-03T05:01:17;1.80;80.20
68358;DHT22;55276;53.260;50.222;2022-11-03T05:03:47;1.90;79.90
68358;DHT22;55276;53.260;50.222;2022-11-03T05:06:15;1.90;80.10
68358;DHT22;55276;53.260;50.222;2022-11-03T05:08:51;2.00;80.20
68358;DHT22;55276;53.260;50.222;2022-11-03T05:11:35;2.00;80.20
68358;DHT22;55276;53.260;50.222;2022-11-03T05:14:15;2.00;80.00
68358;DHT22;55276;53.260;50.222;2022-11-03T05:16:43;2.10;79.90
68358;DHT22;55276;53.260;50.222;2022-11-03T05:19:37;2.10;79.70
68358;DHT22;55276;53.260;50.222;2022-11-03T05:22:14;2.10;79.50
68358;DHT22;55276;53.260;50.222;2022-11-03T05:24:42;2.20;79.10
68358;DHT22;55276;53.260;50.222;2022-11-03T05:27:17;2.20;79.50
68358;DHT22;55276;53.260;50.222;2022-11-03T05:29:44;2.10;79.90
68358;DHT22;55276;53.260;50.222;2022-11-03T05:32:14;2.20;80.30
68358;DHT22;55276;53.260;50.222;2022-11-03T05:34:51;2.30;80.00
68358;DHT22;55276;53.260;50.222;2022-11-03T05:37:30;2.30;80.30
68358;DHT22;55276;53.260;50.222;2022-11-03T05:39:59;2.30;80.10
68358;DHT22;55276;53.260;50.222;2022-11-03T05:44:57;2.30;80.10
68358;DHT22;55276;53.260;50.222;2022-11-03T05:47:42;2.30;80.20
68358;DHT22;55276;53.260;50.222;2022-11-03T05:50:23;2.30;79.80
68358;DHT22;55276;53.260;50.222;2022-11-03T05:52:59;2.30;80.00
68358;DHT22;55276;53.260;50.222;2022-11-03T05:55:33;2.50;79.40
68358;DHT22;55276;53.260;50.222;2022-11-03T06:01:15;2.40;79.00
68358;DHT22;55276;53.260;50.222;2022-11-03T06:03:43;2.40;79.00
68358;DHT22;55276;53.260;50.222;2022-11-03T06:06:24;2.30;79.70
68358;DHT22;55276;53.260;50.222;2022-11-03T06:08:51;2.30;79.90
68358;DHT22;55276;53.260;50.222;2022-11-03T06:11:30;2.40;80.20
68358;DHT22;55276;53.260;50.222;2022-11-03T06:13:58;2.30;80.10
68358;DHT22;55276;53.260;50.222;2022-11-03T06:16:35;2.30;80.40
68358;DHT22;55276;53.260;50.222;2022-11-03T06:21:48;2.30;80.60
68358;DHT22;55276;53.260;50.222;2022-11-03T06:24:15;2.30;80.80
68358;DHT22;55276;53.260;50.222;2022-11-03T06:26:43;2.30;81.20
68358;DHT22;55276;53.260;50.222;2022-11-03T06:29:14;2.30;81.00
68358;DHT22;55276;53.260;50.222;2022-11-03T06:31:42;2.40;81.50
68358;DHT22;55276;53.260;50.222;2022-11-03T06:36:44;2.30;81.90
68358;DHT22;55276;53.260;50.222;2022-11-03T06:39:22;2.30;82.20
68358;DHT22;55276;53.260;50.222;2022-11-03T06:41:51;2.30;82.00
68358;DHT22;55276;53.260;50.222;2022-11-03T06:44:25;2.30;82.20
68358;DHT22;55276;53.260;50.222;2022-11-03T06:47:07;2.30;82.40
68358;DHT22;55276;53.260;50.222;2022-11-03T06:49:39;2.30;82.40
68358;DHT22;55276;53.260;50.222;2022-11-03T06:54:46;2.20;82.90
68358;DHT22;55276;53.260;50.222;2022-11-03T06:57:14;2.20;83.40
68358;DHT22;55276;53.260;50.222;2022-11-03T06:59:43;2.30;82.90
68358;DHT22;55276;53.260;50.222;2022-11-03T07:05:24;2.20;82.70
68358;DHT22;55276;53.260;50.222;2022-11-03T07:07:56;2.10;83.30
68358;DHT22;55276;53.260;50.222;2022-11-03T07:10:28;2.30;83.40
68358;DHT22;55276;53.260;50.222;2022-11-03T07:12:58;2.30;83.10
68358;DHT22;55276;53.260;50.222;2022-11-03T07:15:29;2.30;82.50
68358;DHT22;55276;53.260;50.222;2022-11-03T07:17:58;2.50;83.00
68358;DHT22;55276;53.260;50.222;2022-11-03T07:20:26;2.60;82.60
68358;DHT22;55276;53.260;50.222;2022-11-03T07:22:54;2.70;82.40
68358;DHT22;55276;53.260;50.222;2022-11-03T07:25:22;2.90;82.70
68358;DHT22;55276;53.260;50.222;2022-11-03T07:27:50;3.10;81.50
68358;DHT22;55276;53.260;50.222;2022-11-03T07:30:22;3.00;80.90
68358;DHT22;55276;53.260;50.222;2022-11-03T07:32:53;3.00;80.80
68358;DHT22;55276;53.260;50.222;2022-11-03T07:35:33;3.00;80.10
68358;DHT22;55276;53.260;50.222;2022-11-03T07:38:18;2.90;80.00
68358;DHT22;55276;53.260;50.222;2022-11-03T07:40:45;2.90;80.70
68358;DHT22;55276;53.260;50.222;2022-11-03T07:43:21;3.00;80.00
68358;DHT22;55276;53.260;50.222;2022-11-03T07:45:50;3.10;80.40
68358;DHT22;55276;53.260;50.222;2022-11-03T07:50:44;3.10;79.30
68358;DHT22;55276;53.260;50.222;2022-11-03T07:53:39;2.90;79.60
68358;DHT22;55276;53.260;50.222;2022-11-03T07:58:43;2.80;79.60
68358;DHT22;55276;53.260;50.222;2022-11-03T08:01:23;2.80;80.00
68358;DHT22;55276;53.260;50.222;2022-11-03T08:03:50;2.90;79.50
68358;DHT22;55276;53.260;50.222;2022-11-03T08:06:16;2.80;79.70
68358;DHT22;55276;53.260;50.222;2022-11-03T08:08:42;2.90;79.80
68358;DHT22;55276;53.260;50.222;2022-11-03T08:11:08;2.90;79.80
68358;DHT22;55276;53.260;50.222;2022-11-03T08:13:34;3.10;79.80
68358;DHT22;55276;53.260;50.222;2022-11-03T08:16:01;3.20;79.20
68358;DHT22;55276;53.260;50.222;2022-11-03T08:18:29;3.20;78.30
68358;DHT22;55276;53.260;50.222;2022-11-03T08:20:56;3.20;78.70
68358;DHT22;55276;53.260;50.222;2022-11-03T08:23:24;3.20;77.50
68358;DHT22;55276;53.260;50.222;2022-11-03T08:25:50;3.10;77.50
68358;DHT22;55276;53.260;50.222;2022-11-03T08:28:16;3.10;78.10
68358;DHT22;55276;53.260;50.222;2022-11-03T08:30:42;3.10;78.00
68358;DHT22;55276;53.260;50.222;2022-11-03T08:33:09;3.10;77.10
68358;DHT22;55276;53.260;50.222;2022-11-03T08:35:35;3.00;77.40
68358;DHT22;55276;53.260;50.222;2022-11-03T08:38:01;3.00;78.00
68358;DHT22;55276;53.260;50.222;2022-11-03T08:40:27;3.00;77.80
68358;DHT22;55276;53.260;50.222;2022-11-03T08:42:53;2.90;77.70
68358;DHT22;55276;53.260;50.222;2022-11-03T08:45:19;2.80;78.20
68358;DHT22;55276;53.260;50.222;2022-11-03T08:47:45;2.80;78.60
68358;DHT22;55276;53.260;50.222;2022-11-03T08:50:14;2.80;78.40
68358;DHT22;55276;53.260;50.222;2022-11-03T08:52:40;2.70;78.20
68358;DHT22;55276;53.260;50.222;2022-11-03T08:55:06;2.60;78.60
68358;DHT22;55276;53.260;50.222;2022-11-03T08:57:33;2.60;78.60
68358;DHT22;55276;53.260;50.222;2022-11-03T09:00:08;2.60;79.00
68358;DHT22;55276;53.260;50.222;2022-11-03T09:02:34;2.70;78.90
68358;DHT22;55276;53.260;50.222;2022-11-03T09:05:01;2.70;77.70
68358;DHT22;55276;53.260;50.222;2022-11-03T09:07:28;2.70;78.30
68358;DHT22;55276;53.260;50.222;2022-11-03T09:09:54;2.70;78.10
68358;DHT22;55276;53.260;50.222;2022-11-03T09:12:21;2.60;78.40
68358;DHT22;55276;53.260;50.222;2022-11-03T09:14:47;2.60;78.40
68358;DHT22;55276;53.260;50.222;2022-11-03T09:17:25;2.60;78.30
68358;DHT22;55276;53.260;50.222;2022-11-03T09:19:56;2.60;77.70
68358;DHT22;55276;53.260;50.222;2022-11-03T09:22:28;2.50;77.80
68358;DHT22;55276;53.260;50.222;2022-11-03T09:24:59;2.50;78.10
68358;DHT22;55276;53.260;50.222;2022-11-03T09:27:26;2.50;78.00
68358;DHT22;55276;53.260;50.222;2022-11-03T09:29:57;2.50;77.80
68358;DHT22;55276;53.260;50.222;2022-11-03T09:32:29;2.50;77.90
68358;DHT22;55276;53.260;50.222;2022-11-03T09:34:56;2.50;78.10
68358;DHT22;55276;53.260;50.222;2022-11-03T09:37:22;2.50;77.80
68358;DHT22;55276;53.260;50.222;2022-11-03T09:39:59;2.60;77.40
68358;DHT22;55276;53.260;50.222;2022-11-03T09:42:25;2.50;77.30
68358;DHT22;55276;53.260;50.222;2022-11-03T09:44:53;2.60;77.30
68358;DHT22;55276;53.260;50.222;2022-11-03T09:47:23;2.60;77.10
68358;DHT22;55276;53.260;50.222;2022-11-03T09:49:51;2.60;77.30
68358;DHT22;55276;53.260;50.222;2022-11-03T09:52:21;2.70;76.60
68358;DHT22;55276;53.260;50.222;2022-11-03T09:54:52;2.60;76.40
68358;DHT22;55276;53.260;50.222;2022-11-03T09:57:34;2.50;76.00
68358;DHT22;55276;53.260;50.222;2022-11-03T10:00:03;2.50;76.70
68358;DHT22;55276;53.260;50.222;2022-11-03T10:02:30;2.50;76.80
68358;DHT22;55276;53.260;50.222;2022-11-03T10:04:58;2.40;76.90
68358;DHT22;55276;53.260;50.222;2022-11-03T10:07:27;2.40;77.10
68358;DHT22;55276;53.260;50.222;2022-11-03T10:09:56;2.40;77.20
68358;DHT22;55276;53.260;50.222;2022-11-03T10:12:24;2.40;77.00
68358;DHT22;55276;53.260;50.222;2022-11-03T10:14:51;2.40;77.10
68358;DHT22;55276;53.260;50.222;2022-11-03T10:17:23;2.40;77.20
68358;DHT22;55276;53.260;50.222;2022-11-03T10:19:52;2.40;77.50
68358;DHT22;55276;53.260;50.222;2022-11-03T10:22:21;2.50;77.60
68358;DHT22;55276;53.260;50.222;2022-11-03T10:24:48;2.60;77.30
68358;DHT22;55276;53.260;50.222;2022-11-03T10:27:23;2.70;76.70
68358;DHT22;55276;53.260;50.222;2022-11-03T10:30:10;2.80;76.90
68358;DHT22;55276;53.260;50.222;2022-11-03T10:32:36;2.80;76.20
68358;DHT22;55276;53.260;50.222;2022-11-03T10:35:32;2.80;75.80
68358;DHT22;55276;53.260;50.222;2022-11-03T10:38:26;2.80;75.60
68358;DHT22;55276;53.260;50.222;2022-11-03T10:40:53;2.80;75.70
68358;DHT22;55276;53.260;50.222;2022-11-03T10:43:20;2.80;75.40
68358;DHT22;55276;53.260;50.222;2022-11-03T10:45:46;2.80;75.40
68358;DHT22;55276;53.260;50.222;2022-11-03T10:48:14;2.80;75.00
68358;DHT22;55276;53.260;50.222;2022-11-03T10:50:41;2.80;75.00
68358;DHT22;55276;53.260;50.222;2022-11-03T10:53:19;2.80;74.90
68358;DHT22;55276;53.260;50.222;2022-11-03T10:55:45;2.80;75.20
68358;DHT22;55276;53.260;50.222;2022-11-03T10:58:15;2.90;75.30
68358;DHT22;55276;53.260;50.222;2022-11-03T11:00:59;3.00;75.00
68358;DHT22;55276;53.260;50.222;2022-11-03T11:03:27;3.00;74.90
68358;DHT22;55276;53.260;50.222;2022-11-03T11:05:53;3.00;74.20
68358;DHT22;55276;53.260;50.222;2022-11-03T11:08:22;2.90;74.20
68358;DHT22;55276;53.260;50.222;2022-11-03T11:10:48;2.80;74.30
68358;DHT22;55276;53.260;50.222;2022-11-03T11:16:01;2.80;74.40
68358;DHT22;55276;53.260;50.222;2022-11-03T11:19:00;2.80;75.00
68358;DHT22;55276;53.260;50.222;2022-11-03T11:23:55;3.00;74.40
68358;DHT22;55276;53.260;50.222;2022-11-03T11:31:53;2.90;74.50
68358;DHT22;55276;53.260;50.222;2022-11-03T11:42:08;2.30;75.20
68358;DHT22;55276;53.260;50.222;2022-11-03T11:55:05;2.00;76.40
68358;DHT22;55276;53.260;50.222;2022-11-03T11:57:38;2.00;76.70
68358;DHT22;55276;53.260;50.222;2022-11-03T12:00:04;1.90;76.50
68358;DHT22;55276;53.260;50.222;2022-11-03T12:02:34;1.90;76.90
68358;DHT22;55276;53.260;50.222;2022-11-03T12:05:00;1.90;76.80
68358;DHT22;55276;53.260;50.222;2022-11-03T12:07:33;1.90;76.70
68358;DHT22;55276;53.260;50.222;2022-11-03T12:10:16;1.90;76.70
68358;DHT22;55276;53.260;50.222;2022-11-03T12:12:42;1.80;76.80
68358;DHT22;55276;53.260;50.222;2022-11-03T12:15:47;1.80;76.90
68358;DHT22;55276;53.260;50.222;2022-11-03T12:21:10;1.60;77.30
68358;DHT22;55276;53.260;50.222;2022-11-03T12:23:44;1.50;77.50
68358;DHT22;55276;53.260;50.222;2022-11-03T12:26:57;1.50;77.80
68358;DHT22;55276;53.260;50.222;2022-11-03T12:29:06;1.50;77.50
68358;DHT22;55276;53.260;50.222;2022-11-03T12:31:33;1.40;77.90
68358;DHT22;55276;53.260;50.222;2022-11-03T12:33:59;1.30;77.90
68358;DHT22;55276;53.260;50.222;2022-11-03T12:36:25;1.30;78.20
68358;DHT22;55276;53.260;50.222;2022-11-03T12:38:51;1.30;78.30
68358;DHT22;55276;53.260;50.222;2022-11-03T12:41:20;1.20;78.20
68358;DHT22;55276;53.260;50.222;2022-11-03T12:43:47;1.20;78.50
68358;DHT22;55276;53.260;50.222;2022-11-03T12:46:19;1.20;78.50
68358;DHT22;55276;53.260;50.222;2022-11-03T12:48:46;1.20;78.30
68358;DHT22;55276;53.260;50.222;2022-11-03T12:51:14;1.20;78.40
68358;DHT22;55276;53.260;50.222;2022-11-03T12:53:40;1.10;78.70
68358;DHT22;55276;53.260;50.222;2022-11-03T12:56:08;1.00;79.00
68358;DHT22;55276;53.260;50.222;2022-11-03T12:58:34;1.00;78.90
68358;DHT22;55276;53.260;50.222;2022-11-03T13:01:04;1.00;79.20
68358;DHT22;55276;53.260;50.222;2022-11-03T13:03:31;1.00;79.20
68358;DHT22;55276;53.260;50.222;2022-11-03T13:05:57;1.00;79.30
68358;DHT22;55276;53.260;50.222;2022-11-03T13:08:24;0.90;79.70
68358;DHT22;55276;53.260;50.222;2022-11-03T13:10:51;0.90;79.80
68358;DHT22;55276;53.260;50.222;2022-11-03T13:13:19;0.90;79.90
68358;DHT22;55276;53.260;50.222;2022-11-03T13:18:30;0.90;79.80
68358;DHT22;55276;53.260;50.222;2022-11-03T13:20:59;1.00;79.90
68358;DHT22;55276;53.260;50.222;2022-11-03T13:23:31;0.90;80.00
68358;DHT22;55276;53.260;50.222;2022-11-03T13:26:00;0.90;80.10
68358;DHT22;55276;53.260;50.222;2022-11-03T13:28:32;0.90;80.30
68358;DHT22;55276;53.260;50.222;2022-11-03T13:30:58;0.90;80.40
68358;DHT22;55276;53.260;50.222;2022-11-03T13:33:24;0.90;80.50
68358;DHT22;55276;53.260;50.222;2022-11-03T13:35:53;1.00;80.60
68358;DHT22;55276;53.260;50.222;2022-11-03T13:38:19;1.00;80.30
68358;DHT22;55276;53.260;50.222;2022-11-03T13:40:46;1.10;80.40
68358;DHT22;55276;53.260;50.222;2022-11-03T13:43:12;1.00;80.30
68358;DHT22;55276;53.260;50.222;2022-11-03T13:45:38;1.00;80.60
68358;DHT22;55276;53.260;50.222;2022-11-03T13:48:05;1.00;80.30
68358;DHT22;55276;53.260;50.222;2022-11-03T13:50:31;1.00;80.30
68358;DHT22;55276;53.260;50.222;2022-11-03T13:52:57;1.00;80.30
68358;DHT22;55276;53.260;50.222;2022-11-03T13:55:23;0.90;80.50
68358;DHT22;55276;53.260;50.222;2022-11-03T13:57:50;0.80;80.60
68358;DHT22;55276;53.260;50.222;2022-11-03T14:00:16;0.80;80.60
68358;DHT22;55276;53.260;50.222;2022-11-03T14:02:42;0.80;80.70
68358;DHT22;55276;53.260;50.222;2022-11-03T14:05:09;0.80;80.50
68358;DHT22;55276;53.260;50.222;2022-11-03T14:07:36;0.90;80.40
68358;DHT22;55276;53.260;50.222;2022-11-03T14:10:03;0.80;80.40
68358;DHT22;55276;53.260;50.222;2022-11-03T14:12:29;0.80;80.80
68358;DHT22;55276;53.260;50.222;2022-11-03T14:14:59;0.80;80.90
68358;DHT22;55276;53.260;50.222;2022-11-03T14:17:26;0.80;80.80
68358;DHT22;55276;53.260;50.222;2022-11-03T14:19:54;0.70;80.90
68358;DHT22;55276;53.260;50.222;2022-11-03T14:22:21;0.70;81.10
68358;DHT22;55276;53.260;50.222;2022-11-03T14:24:48;0.70;81.10
68358;DHT22;55276;53.260;50.222;2022-11-03T14:27:15;0.70;81.00
68358;DHT22;55276;53.260;50.222;2022-11-03T14:29:41;0.70;81.20
68358;DHT22;55276;53.260;50.222;2022-11-03T14:32:09;0.70;80.90
68358;DHT22;55276;53.260;50.222;2022-11-03T14:34:35;0.70;81.10
68358;DHT22;55276;53.260;50.222;2022-11-03T14:37:04;0.70;81.10
68358;DHT22;55276;53.260;50.222;2022-11-03T14:39:30;0.70;81.10
68358;DHT22;55276;53.260;50.222;2022-11-03T14:41:57;0.70;81.00
68358;DHT22;55276;53.260;50.222;2022-11-03T14:44:33;0.80;81.00
68358;DHT22;55276;53.260;50.222;2022-11-03T14:47:00;0.80;80.80
68358;DHT22;55276;53.260;50.222;2022-11-03T14:49:27;0.90;80.60
68358;DHT22;55276;53.260;50.222;2022-11-03T14:51:54;1.00;80.40
68358;DHT22;55276;53.260;50.222;2022-11-03T14:54:22;1.00;80.20
68358;DHT22;55276;53.260;50.222;2022-11-03T14:56:49;1.00;80.10
68358;DHT22;55276;53.260;50.222;2022-11-03T14:59:15;1.00;80.10
68358;DHT22;55276;53.260;50.222;2022-11-03T15:01:41;1.00;80.30
68358;DHT22;55276;53.260;50.222;2022-11-03T15:04:09;1.00;80.50
68358;DHT22;55276;53.260;50.222;2022-11-03T15:06:39;0.90;80.40
68358;DHT22;55276;53.260;50.222;2022-11-03T15:09:06;0.90;80.40
68358;DHT22;55276;53.260;50.222;2022-11-03T15:11:37;0.90;80.10
68358;DHT22;55276;53.260;50.222;2022-11-03T15:14:05;0.90;80.00
68358;DHT22;55276;53.260;50.222;2022-11-03T15:16:32;0.80;80.30
68358;DHT22;55276;53.260;50.222;2022-11-03T15:19:08;0.90;80.50
68358;DHT22;55276;53.260;50.222;2022-11-03T15:21:36;1.00;80.40
68358;DHT22;55276;53.260;50.222;2022-11-03T15:24:02;1.00;80.20
68358;DHT22;55276;53.260;50.222;2022-11-03T15:26:28;1.10;80.30
68358;DHT22;55276;53.260;50.222;2022-11-03T15:28:54;1.20;80.10
68358;DHT22;55276;53.260;50.222;2022-11-03T15:31:21;1.20;80.00
68358;DHT22;55276;53.260;50.222;2022-11-03T15:33:48;1.20;79.70
68358;DHT22;55276;53.260;50.222;2022-11-03T15:36:14;1.10;80.00
68358;DHT22;55276;53.260;50.222;2022-11-03T15:38:43;1.20;80.00
68358;DHT22;55276;53.260;50.222;2022-11-03T15:41:09;1.20;79.80
68358;DHT22;55276;53.260;50.222;2022-11-03T15:43:46;1.20;79.80
68358;DHT22;55276;53.260;50.222;2022-11-03T15:46:13;1.30;79.90
68358;DHT22;55276;53.260;50.222;2022-11-03T15:48:40;1.30;79.80
68358;DHT22;55276;53.260;50.222;2022-11-03T15:51:10;1.30;79.90
68358;DHT22;55276;53.260;50.222;2022-11-03T15:53:40;1.30;79.50
68358;DHT22;55276;53.260;50.222;2022-11-03T15:56:13;1.30;79.00
68358;DHT22;55276;53.260;50.222;2022-11-03T15:58:45;1.40;79.10
68358;DHT22;55276;53.260;50.222;2022-11-03T16:01:11;1.30;79.10
68358;DHT22;55276;53.260;50.222;2022-11-03T16:03:37;1.30;79.20
68358;DHT22;55276;53.260;50.222;2022-11-03T16:06:06;1.30;79.30
68358;DHT22;55276;53.260;50.222;2022-11-03T16:08:32;1.30;79.40
68358;DHT22;55276;53.260;50.222;2022-11-03T16:10:58;1.30;79.50
68358;DHT22;55276;53.260;50.222;2022-11-03T16:17:15;1.30;80.10
68358;DHT22;55276;53.260;50.222;2022-11-03T16:19:43;1.30;79.90
68358;DHT22;55276;53.260;50.222;2022-11-03T16:22:09;1.30;80.00
68358;DHT22;55276;53.260;50.222;2022-11-03T16:24:36;1.20;80.20
68358;DHT22;55276;53.260;50.222;2022-11-03T16:27:02;1.10;80.60
68358;DHT22;55276;53.260;50.222;2022-11-03T16:29:28;1.10;80.70
68358;DHT22;55276;53.260;50.222;2022-11-03T16:31:55;1.10;80.90
68358;DHT22;55276;53.260;50.222;2022-11-03T16:34:21;1.10;81.00
68358;DHT22;55276;53.260;50.222;2022-11-03T16:36:47;1.10;80.90
68358;DHT22;55276;53.260;50.222;2022-11-03T16:39:13;1.10;80.70
68358;DHT22;55276;53.260;50.222;2022-11-03T16:41:39;1.00;80.90
68358;DHT22;55276;53.260;50.222;2022-11-03T16:44:05;1.00;80.90
68358;DHT22;55276;53.260;50.222;2022-11-03T16:46:31;0.90;81.20
68358;DHT22;55276;53.260;50.222;2022-11-03T16:48:57;0.80;81.60
68358;DHT22;55276;53.260;50.222;2022-11-03T16:51:24;0.80;81.80
68358;DHT22;55276;53.260;50.222;2022-11-03T16:53:53;0.80;81.90
68358;DHT22;55276;53.260;50.222;2022-11-03T16:56:22;0.80;82.10
68358;DHT22;55276;53.260;50.222;2022-11-03T16:58:49;0.80;82.20
68358;DHT22;55276;53.260;50.222;2022-11-03T17:01:15;0.80;82.10
68358;DHT22;55276;53.260;50.222;2022-11-03T17:03:41;0.80;82.10
68358;DHT22;55276;53.260;50.222;2022-11-03T17:06:07;0.80;82.40
68358;DHT22;55276;53.260;50.222;2022-11-03T17:08:33;0.80;82.30
68358;DHT22;55276;53.260;50.222;2022-11-03T17:10:59;0.80;82.30
68358;DHT22;55276;53.260;50.222;2022-11-03T17:13:26;0.80;82.40
68358;DHT22;55276;53.260;50.222;2022-11-03T17:15:52;0.80;82.50
68358;DHT22;55276;53.260;50.222;2022-11-03T17:18:18;0.70;82.60
68358;DHT22;55276;53.260;50.222;2022-11-03T17:20:47;0.60;82.80
68358;DHT22;55276;53.260;50.222;2022-11-03T17:23:14;0.60;82.90
68358;DHT22;55276;53.260;50.222;2022-11-03T17:25:40;0.60;83.10